createdAt,value
2018-12-19T00:00:45.529Z,5.06
2018-12-19T00:01:45.521Z,5.11
2018-12-19T00:02:45.528Z,5.06
2018-12-19T00:03:45.497Z,5.01
2018-12-19T00:04:45.484Z,5.12
2018-12-19T00:05:45.477Z,5.07
2018-12-19T00:06:45.465Z,5.11
2018-12-19T00:07:45.489Z,5.12
2018-12-19T00:08:45.440Z,5.09
2018-12-19T00:09:45.429Z,5.16
2018-12-19T00:10:45.423Z,5.11
2018-12-19T00:11:45.406Z,5.16
2018-12-19T00:12:45.416Z,5.14
2018-12-19T00:13:45.384Z,5.11
2018-12-19T00:14:45.372Z,5.03
2018-12-19T00:15:45.361Z,5.01
2018-12-19T00:16:45.352Z,5.03
2018-12-19T00:17:45.363Z,5.06
2018-12-19T00:18:45.334Z,5.07
2018-12-19T00:19:45.318Z,5.06
2018-12-19T00:20:45.308Z,5.07
2018-12-19T00:21:45.295Z,5.03
2018-12-19T00:22:45.303Z,5.11
2018-12-19T00:23:45.272Z,5.14
2018-12-19T00:24:45.263Z,5.14
2018-12-19T00:25:45.252Z,5.11
2018-12-19T00:26:45.241Z,5.11
2018-12-19T00:27:45.519Z,5.06
2018-12-19T00:28:45.220Z,5.04
2018-12-19T00:29:45.207Z,5.03
2018-12-19T00:30:45.197Z,5.04
2018-12-19T00:31:45.188Z,5.07
2018-12-19T00:32:45.171Z,5.04
2018-12-19T00:33:45.185Z,5.03
2018-12-19T00:34:45.148Z,5.06
2018-12-19T00:35:45.142Z,5.11
2018-12-19T00:36:45.126Z,5.01
2018-12-19T00:37:45.115Z,5.00
2018-12-19T00:38:45.126Z,5.06
2018-12-19T00:39:45.093Z,4.98
2018-12-19T00:40:45.085Z,5.04
2018-12-19T00:41:45.079Z,5.06
2018-12-19T00:42:45.060Z,5.12
2018-12-19T00:43:45.076Z,5.15
2018-12-19T00:44:45.037Z,5.14
2018-12-19T00:45:45.026Z,5.14
2018-12-19T00:46:45.020Z,5.14
2018-12-19T00:47:45.010Z,5.14
2018-12-19T00:48:45.011Z,5.12
2018-12-19T00:49:46.213Z,5.14
2018-12-19T00:50:44.970Z,5.16
2018-12-19T00:51:44.958Z,5.07
2018-12-19T00:52:44.951Z,5.11
2018-12-19T00:53:44.956Z,5.22
2018-12-19T00:54:44.926Z,5.30
2018-12-19T00:55:44.913Z,5.22
2018-12-19T00:56:44.901Z,5.27
2018-12-19T00:57:44.892Z,5.16
2018-12-19T00:58:44.902Z,5.19
2018-12-19T00:59:44.869Z,5.14
2018-12-19T01:00:44.868Z,5.07
2018-12-19T01:01:44.849Z,5.22
2018-12-19T01:02:44.835Z,5.21
2018-12-19T01:03:44.847Z,5.19
2018-12-19T01:04:48.037Z,5.16
2018-12-19T01:05:44.811Z,5.27
2018-12-19T01:06:44.792Z,5.16
2018-12-19T01:07:44.783Z,5.27
2018-12-19T01:08:44.816Z,5.21
2018-12-19T01:09:44.757Z,5.24
2018-12-19T01:10:44.749Z,5.16
2018-12-19T01:11:44.733Z,5.22
2018-12-19T01:12:44.724Z,5.16
2018-12-19T01:13:44.762Z,5.19
2018-12-19T01:14:44.724Z,5.22
2018-12-19T01:15:44.689Z,5.19
2018-12-19T01:16:44.678Z,5.25
2018-12-19T01:17:44.668Z,5.32
2018-12-19T01:18:44.676Z,5.29
2018-12-19T01:19:44.645Z,5.22
2018-12-19T01:20:44.637Z,5.27
2018-12-19T01:21:44.622Z,5.33
2018-12-19T01:22:44.615Z,5.27
2018-12-19T01:23:44.621Z,5.27
2018-12-19T01:24:44.592Z,5.32
2018-12-19T01:25:44.578Z,5.34
2018-12-19T01:26:44.575Z,5.30
2018-12-19T01:27:44.557Z,5.29
2018-12-19T01:28:44.565Z,5.33
2018-12-19T01:29:44.533Z,5.29
2018-12-19T01:30:44.522Z,5.29
2018-12-19T01:31:44.510Z,5.25
2018-12-19T01:32:44.516Z,5.29
2018-12-19T01:33:44.509Z,5.30
2018-12-19T01:34:44.478Z,5.19
2018-12-19T01:35:44.471Z,5.25
2018-12-19T01:36:44.455Z,5.25
2018-12-19T01:37:44.443Z,5.22
2018-12-19T01:38:44.452Z,5.27
2018-12-19T01:39:44.428Z,5.30
2018-12-19T01:40:44.409Z,5.32
2018-12-19T01:41:44.401Z,5.33
2018-12-19T01:42:44.391Z,5.43
2018-12-19T01:43:44.399Z,5.39
2018-12-19T01:44:44.366Z,5.43
2018-12-19T01:45:44.357Z,5.44
2018-12-19T01:46:44.349Z,5.36
2018-12-19T01:47:44.330Z,5.43
2018-12-19T01:48:44.342Z,5.43
2018-12-19T01:49:44.311Z,5.44
2018-12-19T01:50:44.300Z,5.44
2018-12-19T01:51:44.287Z,5.47
2018-12-19T01:52:44.275Z,5.47
2018-12-19T01:53:44.283Z,5.44
2018-12-19T01:54:44.252Z,5.44
2018-12-19T01:55:44.247Z,5.44
2018-12-19T01:56:44.229Z,5.44
2018-12-19T01:57:44.219Z,5.55
2018-12-19T01:58:44.230Z,5.52
2018-12-19T01:59:44.198Z,5.52
2018-12-19T02:00:44.243Z,5.41
2018-12-19T02:01:44.177Z,5.43
2018-12-19T02:02:44.165Z,5.50
2018-12-19T02:03:44.175Z,5.41
2018-12-19T02:04:44.140Z,5.40
2018-12-19T02:05:44.131Z,5.55
2018-12-19T02:06:44.121Z,5.50
2018-12-19T02:07:44.107Z,5.51
2018-12-19T02:08:44.116Z,5.58
2018-12-19T02:09:44.088Z,5.52
2018-12-19T02:10:44.073Z,5.57
2018-12-19T02:11:44.061Z,5.55
2018-12-19T02:12:44.062Z,5.59
2018-12-19T02:13:44.061Z,5.57
2018-12-19T02:14:44.028Z,5.54
2018-12-19T02:15:44.017Z,5.54
2018-12-19T02:16:44.005Z,5.65
2018-12-19T02:17:44.067Z,5.62
2018-12-19T02:18:44.024Z,5.73
2018-12-19T02:19:43.975Z,5.76
2018-12-19T02:20:43.961Z,5.76
2018-12-19T02:21:43.950Z,5.69
2018-12-19T02:22:43.939Z,5.75
2018-12-19T02:23:43.925Z,5.76
2018-12-19T02:24:43.937Z,5.75
2018-12-19T02:25:43.908Z,5.75
2018-12-19T02:26:43.896Z,5.72
2018-12-19T02:27:43.897Z,5.80
2018-12-19T02:28:43.870Z,5.75
2018-12-19T02:29:43.880Z,5.82
2018-12-19T02:30:43.848Z,5.72
2018-12-19T02:31:43.860Z,5.67
2018-12-19T02:32:43.828Z,5.73
2018-12-19T02:33:43.856Z,5.75
2018-12-19T02:34:43.829Z,5.75
2018-12-19T02:35:43.795Z,5.75
2018-12-19T02:36:43.781Z,5.77
2018-12-19T02:37:43.778Z,5.70
2018-12-19T02:38:43.758Z,5.77
2018-12-19T02:39:43.769Z,5.77
2018-12-19T02:40:43.736Z,5.72
2018-12-19T02:41:43.724Z,5.69
2018-12-19T02:42:43.731Z,5.79
2018-12-19T02:43:43.704Z,5.70
2018-12-19T02:44:43.713Z,5.73
2018-12-19T02:45:43.679Z,5.65
2018-12-19T02:46:43.695Z,5.67
2018-12-19T02:47:43.657Z,5.69
2018-12-19T02:48:43.652Z,5.67
2018-12-19T02:49:43.653Z,5.73
2018-12-19T02:50:43.623Z,5.58
2018-12-19T02:51:43.613Z,5.66
2018-12-19T02:52:43.599Z,5.61
2018-12-19T02:53:43.588Z,5.69
2018-12-19T02:54:43.599Z,5.65
2018-12-19T02:55:43.567Z,5.65
2018-12-19T02:56:43.556Z,5.65
2018-12-19T02:57:43.547Z,5.59
2018-12-19T02:58:43.532Z,5.67
2018-12-19T02:59:43.543Z,5.57
2018-12-19T03:00:43.511Z,5.70
2018-12-19T03:01:43.503Z,5.70
2018-12-19T03:02:43.488Z,5.61
2018-12-19T03:03:43.476Z,5.62
2018-12-19T03:04:43.487Z,5.62
2018-12-19T03:05:43.455Z,5.65
2018-12-19T03:06:43.445Z,5.57
2018-12-19T03:07:43.435Z,5.70
2018-12-19T03:08:43.438Z,5.65
2018-12-19T03:09:43.428Z,5.70
2018-12-19T03:10:43.400Z,5.58
2018-12-19T03:11:43.396Z,5.55
2018-12-19T03:12:43.377Z,5.62
2018-12-19T03:13:43.367Z,5.61
2018-12-19T03:14:43.377Z,5.59
2018-12-19T03:15:43.398Z,5.59
2018-12-19T03:16:43.330Z,5.52
2018-12-19T03:17:43.328Z,5.52
2018-12-19T03:18:43.312Z,5.65
2018-12-19T03:19:43.330Z,5.59
2018-12-19T03:20:43.289Z,5.55
2018-12-19T03:21:43.273Z,5.61
2018-12-19T03:22:43.266Z,5.65
2018-12-19T03:23:43.251Z,5.62
2018-12-19T03:24:43.264Z,5.57
2018-12-19T03:25:43.229Z,5.65
2018-12-19T03:26:43.234Z,5.62
2018-12-19T03:27:43.209Z,5.62
2018-12-19T03:28:43.197Z,5.65
2018-12-19T03:29:43.207Z,5.58
2018-12-19T03:30:43.174Z,5.52
2018-12-19T03:31:43.162Z,5.51
2018-12-19T03:32:43.155Z,5.66
2018-12-19T03:33:43.139Z,5.51
2018-12-19T03:34:43.152Z,5.55
2018-12-19T03:35:43.124Z,5.67
2018-12-19T03:36:43.109Z,5.58
2018-12-19T03:37:43.100Z,5.54
2018-12-19T03:38:43.082Z,5.55
2018-12-19T03:39:50.022Z,5.47
2018-12-19T03:40:44.061Z,5.52
2018-12-19T03:41:43.049Z,5.57
2018-12-19T03:42:43.038Z,5.54
2018-12-19T03:43:43.027Z,5.55
2018-12-19T03:44:43.044Z,5.48
2018-12-19T03:45:43.007Z,5.50
2018-12-19T03:46:42.994Z,5.47
2018-12-19T03:47:42.981Z,5.51
2018-12-19T03:48:42.973Z,5.39
2018-12-19T03:49:42.979Z,5.52
2018-12-19T03:50:42.947Z,5.41
2018-12-19T03:51:42.941Z,5.37
2018-12-19T03:52:42.928Z,5.52
2018-12-19T03:53:42.914Z,5.48
2018-12-19T03:54:42.923Z,5.50
2018-12-19T03:55:42.892Z,5.44
2018-12-19T03:56:42.881Z,5.54
2018-12-19T03:57:42.874Z,5.43
2018-12-19T03:58:42.859Z,5.52
2018-12-19T03:59:42.867Z,5.50
2018-12-19T04:00:42.838Z,5.52
2018-12-19T04:01:42.827Z,5.41
2018-12-19T04:02:42.816Z,5.52
2018-12-19T04:03:42.805Z,5.44
2018-12-19T04:04:42.812Z,5.41
2018-12-19T04:05:42.779Z,5.59
2018-12-19T04:06:42.768Z,5.54
2018-12-19T04:07:42.764Z,5.57
2018-12-19T04:08:42.750Z,5.50
2018-12-19T04:09:42.791Z,5.62
2018-12-19T04:10:42.729Z,5.61
2018-12-19T04:11:42.713Z,5.52
2018-12-19T04:12:42.700Z,5.61
2018-12-19T04:13:42.691Z,5.59
2018-12-19T04:14:42.678Z,5.59
2018-12-19T04:15:42.688Z,5.62
2018-12-19T04:16:42.656Z,5.57
2018-12-19T04:17:42.645Z,5.62
2018-12-19T04:18:42.637Z,5.55
2018-12-19T04:19:42.649Z,5.66
2018-12-19T04:20:42.634Z,5.55
2018-12-19T04:21:42.613Z,5.52
2018-12-19T04:22:42.590Z,5.58
2018-12-19T04:23:42.578Z,5.59
2018-12-19T04:24:42.570Z,5.55
2018-12-19T04:25:42.581Z,5.65
2018-12-19T04:26:42.565Z,5.70
2018-12-19T04:27:42.537Z,5.59
2018-12-19T04:28:42.522Z,5.55
2018-12-19T04:29:42.511Z,5.67
2018-12-19T04:30:42.590Z,5.54
2018-12-19T04:31:42.490Z,5.50
2018-12-19T04:32:42.479Z,5.57
2018-12-19T04:33:42.472Z,5.48
2018-12-19T04:34:42.460Z,5.59
2018-12-19T04:35:42.464Z,5.59
2018-12-19T04:36:42.441Z,5.52
2018-12-19T04:37:42.423Z,5.66
2018-12-19T04:38:42.411Z,5.58
2018-12-19T04:39:42.403Z,5.48
2018-12-19T04:40:42.408Z,5.50
2018-12-19T04:41:42.380Z,5.48
2018-12-19T04:42:42.365Z,5.57
2018-12-19T04:43:42.353Z,5.40
2018-12-19T04:44:42.347Z,5.41
2018-12-19T04:45:42.355Z,5.55
2018-12-19T04:46:42.325Z,5.51
2018-12-19T04:47:42.309Z,5.52
2018-12-19T04:48:42.299Z,5.50
2018-12-19T04:49:42.290Z,5.57
2018-12-19T04:50:42.296Z,5.52
2018-12-19T04:51:42.263Z,5.58
2018-12-19T04:52:42.253Z,5.72
2018-12-19T04:53:42.241Z,5.65
2018-12-19T04:54:42.233Z,5.58
2018-12-19T04:55:42.243Z,5.55
2018-12-19T04:56:42.208Z,5.69
2018-12-19T04:57:42.197Z,5.66
2018-12-19T04:58:42.197Z,5.66
2018-12-19T04:59:42.174Z,5.69
2018-12-19T05:00:42.184Z,5.76
2018-12-19T05:01:42.152Z,5.72
2018-12-19T05:02:42.143Z,5.72
2018-12-19T05:03:42.138Z,5.69
2018-12-19T05:04:42.124Z,5.76
2018-12-19T05:05:42.128Z,5.70
2018-12-19T05:06:42.099Z,5.82
2018-12-19T05:07:42.086Z,5.85
2018-12-19T05:08:42.076Z,5.85
2018-12-19T05:09:42.067Z,5.87
2018-12-19T05:10:42.075Z,5.85
2018-12-19T05:11:42.045Z,5.84
2018-12-19T05:12:42.037Z,5.90
2018-12-19T05:13:42.030Z,5.94
2018-12-19T05:14:42.009Z,5.87
2018-12-19T05:15:42.019Z,6.00
2018-12-19T05:16:41.984Z,6.00
2018-12-19T05:17:41.977Z,6.05
2018-12-19T05:18:41.963Z,6.09
2018-12-19T05:19:41.950Z,6.03
2018-12-19T05:20:41.964Z,6.02
2018-12-19T05:21:41.929Z,6.11
2018-12-19T05:22:41.917Z,6.06
2018-12-19T05:23:41.904Z,6.11
2018-12-19T05:24:41.893Z,6.13
2018-12-19T05:25:41.904Z,6.16
2018-12-19T05:26:41.871Z,6.18
2018-12-19T05:27:41.860Z,6.16
2018-12-19T05:28:41.849Z,6.19
2018-12-19T05:29:41.842Z,6.16
2018-12-19T05:30:41.849Z,6.16
2018-12-19T05:31:41.847Z,6.28
2018-12-19T05:32:41.803Z,6.18
2018-12-19T05:33:41.797Z,6.25
2018-12-19T05:34:41.782Z,6.34
2018-12-19T05:35:41.791Z,6.37
2018-12-19T05:36:41.761Z,6.25
2018-12-19T05:37:41.746Z,6.24
2018-12-19T05:38:41.736Z,6.27
2018-12-19T05:39:41.723Z,6.27
2018-12-19T05:40:41.735Z,6.30
2018-12-19T05:41:41.702Z,6.31
2018-12-19T05:42:41.693Z,6.30
2018-12-19T05:43:41.678Z,6.27
2018-12-19T05:44:41.668Z,6.24
2018-12-19T05:45:41.678Z,6.31
2018-12-19T05:46:41.652Z,6.25
2018-12-19T05:47:41.635Z,6.25
2018-12-19T05:48:41.624Z,6.34
2018-12-19T05:49:41.612Z,6.37
2018-12-19T05:50:41.627Z,6.31
2018-12-19T05:51:41.593Z,6.31
2018-12-19T05:52:41.587Z,6.37
2018-12-19T05:53:41.573Z,6.34
2018-12-19T05:54:41.555Z,6.34
2018-12-19T05:55:41.564Z,6.40
2018-12-19T05:56:41.534Z,6.35
2018-12-19T05:57:41.524Z,6.43
2018-12-19T05:58:41.527Z,6.53
2018-12-19T05:59:41.503Z,6.45
2018-12-19T06:00:41.510Z,6.56
2018-12-19T06:01:41.482Z,6.57
2018-12-19T06:02:41.471Z,6.64
2018-12-19T06:03:41.475Z,6.53
2018-12-19T06:04:41.444Z,6.53
2018-12-19T06:05:41.452Z,6.55
2018-12-19T06:06:41.421Z,6.57
2018-12-19T06:07:41.411Z,6.56
2018-12-19T06:08:41.432Z,6.57
2018-12-19T06:09:41.391Z,6.61
2018-12-19T06:10:41.411Z,6.60
2018-12-19T06:11:41.365Z,6.64
2018-12-19T06:12:41.353Z,6.63
2018-12-19T06:13:41.343Z,6.73
2018-12-19T06:14:41.333Z,6.68
2018-12-19T06:15:41.346Z,6.78
2018-12-19T06:16:41.345Z,6.74
2018-12-19T06:17:41.302Z,6.75
2018-12-19T06:18:41.290Z,6.71
2018-12-19T06:19:41.274Z,6.73
2018-12-19T06:20:41.275Z,6.71
2018-12-19T06:21:41.271Z,6.74
2018-12-19T06:22:41.243Z,6.79
2018-12-19T06:23:41.229Z,6.82
2018-12-19T06:24:41.218Z,6.83
2018-12-19T06:25:41.217Z,6.86
2018-12-19T06:26:41.215Z,6.82
2018-12-19T06:27:41.184Z,6.83
2018-12-19T06:28:41.183Z,6.88
2018-12-19T06:29:41.200Z,6.88
2018-12-19T06:30:41.151Z,6.86
2018-12-19T06:31:41.164Z,6.78
2018-12-19T06:32:41.128Z,6.89
2018-12-19T06:33:41.119Z,6.93
2018-12-19T06:34:41.107Z,6.92
2018-12-19T06:35:41.097Z,6.93
2018-12-19T06:36:41.105Z,6.86
2018-12-19T06:37:41.071Z,6.82
2018-12-19T06:38:41.063Z,6.83
2018-12-19T06:39:50.423Z,6.82
2018-12-19T06:41:35.183Z,6.88
2018-12-19T06:42:35.153Z,6.79
2018-12-19T06:43:35.141Z,6.89
2018-12-19T06:44:35.130Z,6.91
2018-12-19T06:45:35.120Z,6.85
2018-12-19T06:46:35.130Z,6.91
2018-12-19T06:47:35.097Z,6.93
2018-12-19T06:48:35.090Z,6.96
2018-12-19T06:49:35.075Z,6.81
2018-12-19T06:50:35.068Z,6.82
2018-12-19T06:51:35.075Z,6.81
2018-12-19T06:52:35.054Z,6.85
2018-12-19T06:53:35.032Z,6.85
2018-12-19T06:54:35.022Z,6.88
2018-12-19T06:55:35.010Z,6.81
2018-12-19T06:56:35.021Z,6.85
2018-12-19T06:57:34.987Z,6.82
2018-12-19T06:58:34.979Z,6.85
2018-12-19T06:59:34.967Z,6.82
2018-12-19T07:00:34.958Z,6.79
2018-12-19T07:01:34.964Z,6.82
2018-12-19T07:02:34.940Z,6.81
2018-12-19T07:03:34.922Z,6.85
2018-12-19T07:04:34.913Z,6.89
2018-12-19T07:05:34.901Z,6.88
2018-12-19T07:06:34.908Z,6.88
2018-12-19T07:07:34.880Z,6.86
2018-12-19T07:08:34.866Z,6.83
2018-12-19T07:09:34.854Z,6.83
2018-12-19T07:10:39.160Z,6.88
2018-12-19T07:11:34.856Z,6.88
2018-12-19T07:12:34.826Z,6.86
2018-12-19T07:13:34.810Z,6.85
2018-12-19T07:14:34.798Z,6.85
2018-12-19T07:15:34.790Z,6.81
2018-12-19T07:16:34.797Z,6.85
2018-12-19T07:17:34.766Z,6.83
2018-12-19T07:18:34.754Z,6.79
2018-12-19T07:19:34.743Z,6.83
2018-12-19T07:20:34.734Z,6.86
2018-12-19T07:21:34.741Z,6.79
2018-12-19T07:22:34.712Z,6.86
2018-12-19T07:23:34.701Z,6.82
2018-12-19T07:24:34.691Z,6.83
2018-12-19T07:25:34.677Z,6.86
2018-12-19T07:26:34.686Z,6.86
2018-12-19T07:27:34.658Z,6.79
2018-12-19T07:28:34.644Z,6.81
2018-12-19T07:29:34.633Z,6.86
2018-12-19T07:30:34.624Z,6.79
2018-12-19T07:31:34.630Z,6.79
2018-12-19T07:32:34.600Z,6.86
2018-12-19T07:33:34.589Z,6.82
2018-12-19T07:34:34.580Z,6.82
2018-12-19T07:35:34.568Z,6.88
2018-12-19T07:36:34.575Z,6.83
2018-12-19T07:37:34.544Z,6.79
2018-12-19T07:38:34.535Z,6.88
2018-12-19T07:39:34.522Z,6.93
2018-12-19T07:40:34.511Z,6.88
2018-12-19T07:41:34.524Z,6.91
2018-12-19T07:42:34.492Z,6.91
2018-12-19T07:43:34.478Z,6.96
2018-12-19T07:44:34.466Z,7.01
2018-12-19T07:45:34.457Z,7.01
2018-12-19T07:46:34.468Z,7.03
2018-12-19T07:47:34.436Z,7.06
2018-12-19T07:48:34.422Z,7.03
2018-12-19T07:49:34.411Z,7.07
2018-12-19T07:50:34.400Z,6.97
2018-12-19T07:51:34.411Z,6.93
2018-12-19T07:52:34.379Z,7.01
2018-12-19T07:53:34.367Z,6.93
2018-12-19T07:54:34.355Z,6.99
2018-12-19T07:55:34.344Z,6.99
2018-12-19T07:56:34.334Z,6.91
2018-12-19T07:57:34.347Z,6.97
2018-12-19T07:58:34.312Z,6.96
2018-12-19T07:59:34.300Z,7.00
2018-12-19T08:00:34.295Z,6.96
2018-12-19T08:01:34.281Z,7.03
2018-12-19T08:02:34.290Z,6.99
2018-12-19T08:03:34.259Z,6.97
2018-12-19T08:04:34.246Z,6.92
2018-12-19T08:05:34.235Z,7.15
2018-12-19T08:06:34.223Z,7.07
2018-12-19T08:07:34.231Z,7.15
2018-12-19T08:08:34.203Z,7.13
2018-12-19T08:09:34.190Z,7.18
2018-12-19T08:10:34.180Z,7.16
2018-12-19T08:11:34.175Z,7.16
2018-12-19T08:12:36.092Z,7.07
2018-12-19T08:13:34.146Z,7.10
2018-12-19T08:14:34.136Z,7.08
2018-12-19T08:15:34.126Z,7.16
2018-12-19T08:16:34.113Z,7.07
2018-12-19T08:17:34.121Z,7.15
2018-12-19T08:18:34.091Z,7.19
2018-12-19T08:19:34.079Z,7.16
2018-12-19T08:20:34.070Z,7.19
2018-12-19T08:21:34.083Z,7.22
2018-12-19T08:22:34.067Z,7.08
2018-12-19T08:23:34.036Z,7.15
2018-12-19T08:24:34.035Z,7.21
2018-12-19T08:25:34.014Z,7.18
2018-12-19T08:26:34.003Z,7.28
2018-12-19T08:27:34.011Z,7.29
2018-12-19T08:28:33.983Z,7.29
2018-12-19T08:29:33.972Z,7.25
2018-12-19T08:30:33.961Z,7.29
2018-12-19T08:31:33.950Z,7.25
2018-12-19T08:32:33.957Z,7.28
2018-12-19T08:33:33.933Z,7.24
2018-12-19T08:34:33.915Z,7.29
2018-12-19T08:35:33.903Z,7.29
2018-12-19T08:36:33.905Z,7.34
2018-12-19T08:37:33.913Z,7.33
2018-12-19T08:38:33.877Z,7.28
2018-12-19T08:39:33.864Z,7.29
2018-12-19T08:40:33.851Z,7.39
2018-12-19T08:41:33.839Z,7.33
2018-12-19T08:42:33.846Z,7.36
2018-12-19T08:43:33.820Z,7.39
2018-12-19T08:44:33.805Z,7.39
2018-12-19T08:45:33.814Z,7.37
2018-12-19T08:46:33.782Z,7.40
2018-12-19T08:47:33.791Z,7.39
2018-12-19T08:48:33.762Z,7.34
2018-12-19T08:49:33.751Z,7.29
2018-12-19T08:50:33.743Z,7.33
2018-12-19T08:51:33.729Z,7.44
2018-12-19T08:52:33.739Z,7.39
2018-12-19T08:53:33.707Z,7.46
2018-12-19T08:54:33.695Z,7.44
2018-12-19T08:55:33.689Z,7.39
2018-12-19T08:56:33.685Z,7.44
2018-12-19T08:57:33.684Z,7.42
2018-12-19T08:58:33.651Z,7.42
2018-12-19T08:59:33.644Z,7.43
2018-12-19T09:00:33.636Z,7.37
2018-12-19T09:01:33.617Z,7.46
2018-12-19T09:02:33.633Z,7.46
2018-12-19T09:03:33.596Z,7.37
2018-12-19T09:04:33.585Z,7.44
2018-12-19T09:05:33.573Z,7.34
2018-12-19T09:06:33.563Z,7.44
2018-12-19T09:07:33.570Z,7.36
2018-12-19T09:08:33.542Z,7.47
2018-12-19T09:09:33.542Z,7.39
2018-12-19T09:10:33.519Z,7.34
2018-12-19T09:11:33.512Z,7.40
2018-12-19T09:12:33.517Z,7.46
2018-12-19T09:13:33.485Z,7.42
2018-12-19T09:14:33.474Z,7.42
2018-12-19T09:15:33.470Z,7.49
2018-12-19T09:16:33.452Z,7.47
2018-12-19T09:17:33.464Z,7.49
2018-12-19T09:18:33.429Z,7.47
2018-12-19T09:19:33.422Z,7.50
2018-12-19T09:20:33.873Z,7.64
2018-12-19T09:21:33.398Z,7.55
2018-12-19T09:22:33.405Z,7.64
2018-12-19T09:23:33.380Z,7.60
2018-12-19T09:24:33.365Z,7.71
2018-12-19T09:25:33.362Z,7.69
2018-12-19T09:26:33.342Z,7.71
2018-12-19T09:27:33.353Z,7.74
2018-12-19T09:28:33.326Z,7.84
2018-12-19T09:29:33.308Z,7.88
2018-12-19T09:30:33.298Z,7.92
2018-12-19T09:31:33.289Z,7.91
2018-12-19T09:32:33.299Z,8.02
2018-12-19T09:33:33.265Z,8.01
2018-12-19T09:34:33.254Z,8.12
2018-12-19T09:35:33.242Z,8.09
2018-12-19T09:36:33.234Z,8.23
2018-12-19T09:37:33.242Z,8.29
2018-12-19T09:38:33.210Z,8.26
2018-12-19T09:39:33.254Z,8.35
2018-12-19T09:40:33.187Z,8.41
2018-12-19T09:41:33.178Z,8.38
2018-12-19T09:42:33.185Z,8.41
2018-12-19T09:43:33.155Z,8.49
2018-12-19T09:44:33.145Z,8.57
2018-12-19T09:45:33.135Z,8.59
2018-12-19T09:46:33.131Z,8.62
2018-12-19T09:47:33.133Z,8.60
2018-12-19T09:48:33.108Z,8.70
2018-12-19T09:49:33.090Z,8.68
2018-12-19T09:50:33.078Z,8.70
2018-12-19T09:51:33.066Z,8.71
2018-12-19T09:52:33.085Z,8.85
2018-12-19T09:53:33.046Z,8.83
2018-12-19T09:54:33.033Z,8.96
2018-12-19T09:55:33.023Z,8.92
2018-12-19T09:56:33.012Z,9.04
2018-12-19T09:57:33.007Z,8.98
2018-12-19T09:58:33.010Z,9.01
2018-12-19T09:59:32.979Z,9.08
2018-12-19T10:00:32.970Z,9.14
2018-12-19T10:01:32.976Z,9.06
2018-12-19T10:02:32.946Z,9.09
2018-12-19T10:03:32.955Z,9.09
2018-12-19T10:04:32.938Z,9.04
2018-12-19T10:05:32.913Z,9.06
2018-12-19T10:06:32.906Z,8.99
2018-12-19T10:07:32.892Z,8.99
2018-12-19T10:08:32.903Z,8.98
2018-12-19T10:09:32.871Z,8.95
2018-12-19T10:10:32.857Z,8.98
2018-12-19T10:11:32.847Z,9.11
2018-12-19T10:12:32.840Z,9.16
2018-12-19T10:13:32.850Z,9.22
2018-12-19T10:14:32.815Z,9.23
2018-12-19T10:15:32.805Z,9.29
2018-12-19T10:16:32.792Z,9.29
2018-12-19T10:17:32.783Z,9.32
2018-12-19T10:18:32.792Z,9.36
2018-12-19T10:19:32.762Z,9.45
2018-12-19T10:20:32.751Z,9.60
2018-12-19T10:21:32.740Z,9.54
2018-12-19T10:22:32.730Z,9.62
2018-12-19T10:23:32.735Z,9.75
2018-12-19T10:24:32.709Z,9.93
2018-12-19T10:25:32.693Z,10.05
2018-12-19T10:26:32.683Z,9.99
2018-12-19T10:27:32.671Z,10.16
2018-12-19T10:28:32.679Z,10.05
2018-12-19T10:29:32.653Z,9.99
2018-12-19T10:30:32.641Z,10.52
2018-12-19T10:31:32.627Z,10.97
2018-12-19T10:32:32.616Z,11.37
2018-12-19T10:33:32.626Z,11.77
2018-12-19T10:34:32.600Z,12.05
2018-12-19T10:35:32.584Z,12.28
2018-12-19T10:36:32.572Z,12.55
2018-12-19T10:37:32.561Z,12.80
2018-12-19T10:38:32.569Z,13.02
2018-12-19T10:39:32.538Z,13.26
2018-12-19T10:40:32.528Z,13.32
2018-12-19T10:41:32.520Z,13.47
2018-12-19T10:42:32.509Z,13.60
2018-12-19T10:43:32.517Z,13.68
2018-12-19T10:44:32.489Z,13.83
2018-12-19T10:45:32.478Z,13.73
2018-12-19T10:46:32.464Z,13.60
2018-12-19T10:47:32.455Z,13.58
2018-12-19T10:48:32.464Z,13.43
2018-12-19T10:49:32.434Z,13.26
2018-12-19T10:50:32.420Z,13.04
2018-12-19T10:51:32.410Z,12.93
2018-12-19T10:52:32.403Z,12.77
2018-12-19T10:53:33.806Z,12.66
2018-12-19T10:54:32.378Z,12.48
2018-12-19T10:55:32.365Z,12.40
2018-12-19T10:56:32.354Z,12.18
2018-12-19T10:57:32.345Z,12.11
2018-12-19T10:58:32.357Z,12.05
2018-12-19T10:59:32.322Z,11.88
2018-12-19T11:00:32.312Z,11.76
2018-12-19T11:01:32.302Z,11.51
2018-12-19T11:02:32.291Z,11.33
2018-12-19T11:03:32.301Z,11.13
2018-12-19T11:04:32.273Z,11.01
2018-12-19T11:05:32.256Z,10.91
2018-12-19T11:06:32.249Z,10.83
2018-12-19T11:07:32.234Z,10.85
2018-12-19T11:08:32.245Z,10.83
2018-12-19T11:09:32.213Z,10.79
2018-12-19T11:10:32.203Z,10.73
2018-12-19T11:11:32.542Z,10.61
2018-12-19T11:12:32.180Z,10.55
2018-12-19T11:13:32.191Z,10.58
2018-12-19T11:14:32.157Z,10.55
2018-12-19T11:15:32.148Z,10.57
2018-12-19T11:16:32.141Z,10.54
2018-12-19T11:17:32.124Z,10.57
2018-12-19T11:18:32.133Z,10.54
2018-12-19T11:19:32.101Z,10.55
2018-12-19T11:20:32.092Z,10.62
2018-12-19T11:21:32.085Z,10.72
2018-12-19T11:22:32.069Z,10.83
2018-12-19T11:23:32.079Z,10.93
2018-12-19T11:24:32.049Z,11.03
2018-12-19T11:25:32.035Z,11.16
2018-12-19T11:26:32.025Z,11.20
2018-12-19T11:27:32.029Z,11.34
2018-12-19T11:28:32.024Z,11.38
2018-12-19T11:29:31.995Z,11.48
2018-12-19T11:30:31.980Z,11.40
2018-12-19T11:31:31.973Z,11.62
2018-12-19T11:32:31.961Z,11.66
2018-12-19T11:33:31.967Z,11.85
2018-12-19T11:34:31.959Z,11.93
2018-12-19T11:35:31.933Z,11.95
2018-12-19T11:36:31.924Z,12.07
2018-12-19T11:37:31.906Z,12.21
2018-12-19T11:38:31.926Z,12.41
2018-12-19T11:39:31.881Z,12.54
2018-12-19T11:40:31.869Z,12.76
2018-12-19T11:41:31.859Z,13.01
2018-12-19T11:42:31.848Z,13.35
2018-12-19T11:43:31.840Z,13.63
2018-12-19T11:44:31.858Z,13.97
2018-12-19T11:45:31.819Z,14.53
2018-12-19T11:46:31.808Z,15.05
2018-12-19T11:47:31.793Z,15.73
2018-12-19T11:48:31.786Z,16.29
2018-12-19T11:49:31.800Z,16.74
2018-12-19T11:50:31.763Z,16.97
2018-12-19T11:51:31.751Z,17.31
2018-12-19T11:52:31.745Z,17.71
2018-12-19T11:53:31.728Z,17.99
2018-12-19T11:54:31.738Z,18.42
2018-12-19T11:55:31.707Z,18.70
2018-12-19T11:56:31.698Z,18.93
2018-12-19T11:57:31.683Z,19.16
2018-12-19T11:58:31.674Z,19.42
2018-12-19T11:59:31.684Z,19.23
2018-12-19T12:00:31.651Z,19.31
2018-12-19T12:01:31.648Z,19.59
2018-12-19T12:02:31.631Z,19.74
2018-12-19T12:03:31.619Z,19.99
2018-12-19T12:04:31.629Z,20.05
2018-12-19T12:05:31.600Z,20.19
2018-12-19T12:06:31.585Z,20.14
2018-12-19T12:07:31.581Z,20.11
2018-12-19T12:08:31.570Z,19.92
2018-12-19T12:09:31.580Z,20.02
2018-12-19T12:10:31.544Z,19.90
2018-12-19T12:11:31.537Z,19.86
2018-12-19T12:12:31.525Z,19.86
2018-12-19T12:13:31.516Z,19.87
2018-12-19T12:14:31.523Z,19.94
2018-12-19T12:15:31.490Z,20.12
2018-12-19T12:16:31.524Z,20.14
2018-12-19T12:17:31.473Z,20.12
2018-12-19T12:18:31.457Z,20.15
2018-12-19T12:19:31.466Z,20.41
2018-12-19T12:20:31.436Z,20.52
2018-12-19T12:21:31.426Z,20.74
2018-12-19T12:22:31.414Z,20.93
2018-12-19T12:23:31.405Z,20.93
2018-12-19T12:24:31.413Z,21.03
2018-12-19T12:25:31.382Z,20.97
2018-12-19T12:26:31.376Z,20.79
2018-12-19T12:27:31.371Z,20.15
2018-12-19T12:28:31.355Z,19.34
2018-12-19T12:29:31.360Z,18.64
2018-12-19T12:30:31.332Z,17.79
2018-12-19T12:31:31.317Z,16.91
2018-12-19T12:32:31.307Z,16.18
2018-12-19T12:33:31.297Z,15.77
2018-12-19T12:34:31.304Z,15.36
2018-12-19T12:35:31.274Z,15.01
2018-12-19T12:36:31.344Z,14.86
2018-12-19T12:37:31.253Z,14.52
2018-12-19T12:38:34.134Z,14.26
2018-12-19T12:39:31.255Z,14.05
2018-12-19T12:40:31.220Z,13.93
2018-12-19T12:41:31.210Z,13.65
2018-12-19T12:42:31.203Z,13.54
2018-12-19T12:43:31.207Z,13.46
2018-12-19T12:44:31.200Z,13.40
2018-12-19T12:45:31.167Z,13.32
2018-12-19T12:46:31.157Z,13.09
2018-12-19T12:47:31.144Z,13.01
2018-12-19T12:48:31.135Z,12.96
2018-12-19T12:49:31.149Z,12.93
2018-12-19T12:50:31.116Z,12.84
2018-12-19T12:51:31.111Z,12.81
2018-12-19T12:52:31.089Z,12.83
2018-12-19T12:53:31.078Z,12.73
2018-12-19T12:54:31.087Z,12.66
2018-12-19T12:55:31.059Z,12.54
2018-12-19T12:56:31.062Z,12.61
2018-12-19T12:57:31.035Z,12.40
2018-12-19T12:58:31.023Z,12.32
2018-12-19T12:59:31.032Z,12.29
2018-12-19T13:00:31.003Z,12.26
2018-12-19T13:01:31.001Z,12.26
2018-12-19T13:02:30.987Z,12.15
2018-12-19T13:03:30.968Z,12.11
2018-12-19T13:04:30.979Z,12.21
2018-12-19T13:05:30.949Z,12.18
2018-12-19T13:06:30.941Z,12.07
2018-12-19T13:07:30.928Z,11.97
2018-12-19T13:08:30.917Z,12.07
2018-12-19T13:09:30.924Z,11.93
2018-12-19T13:10:36.211Z,12.00
2018-12-19T13:11:30.883Z,12.00
2018-12-19T13:12:30.869Z,12.05
2018-12-19T13:13:30.858Z,11.95